Aérodrome :
LOGIN :

S'inscrire | Disclaimer

   EN    FR    IT 

 










Légende :    VFR   VFR Marginal   IFR   IFR Intensif   IFR Très Intensif
Visi : 
Plafond : 
>= 8 km
>= 3000ft
5 à 8 km
1000 à 3000 ft
1500m à 5 km
500 à 1000 ft
800 à 1500m
200 à 500 ft
< 800m
< 200 ft
Symboles :   Orages  Brouillard  Fortes neiges  Fortes précipitations  Vent > 20 kt
SIGMETs :   Divers  Orages  Givrage  Turbulence  Onde Orograph.  Cendres Volcan.






- Altitude de l'aérodrome : 219 ft
- Code IATA : DNR


LFRD - Dinard

DERNIER METAR :
  • 190430Z AUTO 18006KT CAVOK 03/02 Q1017 BECMG 1500 BR BKN002

METARs EXPIRÉS :
  • 190400Z AUTO 18005KT CAVOK 03/03 Q1017 TEMPO VV/// BECMG 3000 BR
  • 190330Z AUTO 18005KT CAVOK 03/03 Q1017 TEMPO VV/// BECMG 3000 BR
  • 190300Z AUTO 19005KT CAVOK 03/02 Q1017 TEMPO 0500 FG VV///
  • 190230Z AUTO 18006KT CAVOK 03/03 Q1018 TEMPO 0500 FG VV///
  • 190200Z AUTO 19004KT CAVOK 03/02 Q1018 TEMPO 0500 FG VV///

TAF TAF LFRD
Valide du 19 à 00h jusqu'au 20 à 00h UTC


182300Z 1900/1924 VRB03KT CAVOK
BECMG 1900/1902 3000 BR NSC
TEMPO 1900/1905 0500 FG VV///
BECMG 1906/1908 17010KT 1500 BR BKN002
BECMG 1910/1912 6000 NSW BKN007
TEMPO 1914/1918 SCT010 BKN030
BECMG 1918/1921 15015KT
ATIS : +33 2 99 16 81 50



MET'MAP, la Météo Aéronautique d'un coup d'oeil ! - Copyright ORBIFLY Décembre 2007 - Disclaimer

ORBIFLY MET'MAP TEAM :

Programmation & Développement : Alexandra Zaïnal
Conception & Développement : Baudouin d'Aumeries
Co-Programmation & Développement : Marc-Olivier Méhu
Soutien technique & logistique : Manuel Goepfert

Contact : metmap@orbifly.com




SOURCES & CREDITS :

   NOAA